EGHS weather

Henstridge Airfield
Henstridge, England, United Kingdom

Public forecast

Using degrees Celsius for public forecast. Weather courtesy of forecast.io.

METAR (pilot weather report)

Closest report is RNAS Yeovilton, 10.7 nm (19.9 km) W. Retrieved 2019/09/22 09:50 UTC (1 hour ago):

EGDY 220950Z AUTO 16006KT 9999 RA SCT009/// BKN050/// 17/15 Q1002

TAF (pilot weather forecast)

Forecast is more than 12 hours old.

Closest forecast is RNAS Yeovilton, 10.7 nm (19.9 km) W. Retrieved 2019/05/01 18:06 UTC (5 months ago):

TAF TAF EGDY 010100Z 3018/0103 CNL